sensor_id;sensor_type;location;lat;lon;timestamp;temperature;humidity
2387;DHT22;49473;50.772;8.768;2022-08-19T00:01:19;19.80;99.90
2387;DHT22;49473;50.772;8.768;2022-08-19T00:03:46;19.80;99.90
2387;DHT22;49473;50.772;8.768;2022-08-19T00:06:13;19.80;99.90
2387;DHT22;49473;50.772;8.768;2022-08-19T00:08:40;19.90;99.90
2387;DHT22;49473;50.772;8.768;2022-08-19T00:11:09;20.00;99.90
2387;DHT22;49473;50.772;8.768;2022-08-19T00:13:36;20.00;99.90
2387;DHT22;49473;50.772;8.768;2022-08-19T00:16:04;19.90;99.90
2387;DHT22;49473;50.772;8.768;2022-08-19T00:18:32;20.00;99.90
2387;DHT22;49473;50.772;8.768;2022-08-19T00:20:59;20.10;99.90
2387;DHT22;49473;50.772;8.768;2022-08-19T00:23:26;20.20;99.90
2387;DHT22;49473;50.772;8.768;2022-08-19T00:25:54;20.20;99.90
2387;DHT22;49473;50.772;8.768;2022-08-19T00:28:22;20.20;99.90
2387;DHT22;49473;50.772;8.768;2022-08-19T00:30:48;20.30;99.90
2387;DHT22;49473;50.772;8.768;2022-08-19T00:33:17;20.30;99.90
2387;DHT22;49473;50.772;8.768;2022-08-19T00:35:44;20.30;99.90
2387;DHT22;49473;50.772;8.768;2022-08-19T00:38:10;20.40;99.90
2387;DHT22;49473;50.772;8.768;2022-08-19T00:40:37;20.40;99.90
2387;DHT22;49473;50.772;8.768;2022-08-19T00:43:08;20.40;99.90
2387;DHT22;49473;50.772;8.768;2022-08-19T00:45:36;20.40;99.90
2387;DHT22;49473;50.772;8.768;2022-08-19T00:48:03;20.30;99.90
2387;DHT22;49473;50.772;8.768;2022-08-19T00:50:31;20.40;99.90
2387;DHT22;49473;50.772;8.768;2022-08-19T00:52:58;20.40;99.90
2387;DHT22;49473;50.772;8.768;2022-08-19T00:55:26;20.30;99.90
2387;DHT22;49473;50.772;8.768;2022-08-19T00:57:57;20.40;99.90
2387;DHT22;49473;50.772;8.768;2022-08-19T01:00:26;20.30;99.90
2387;DHT22;49473;50.772;8.768;2022-08-19T01:02:55;20.30;99.90
2387;DHT22;49473;50.772;8.768;2022-08-19T01:05:24;20.20;99.90
2387;DHT22;49473;50.772;8.768;2022-08-19T01:07:53;20.10;99.90
2387;DHT22;49473;50.772;8.768;2022-08-19T01:10:23;20.20;99.90
2387;DHT22;49473;50.772;8.768;2022-08-19T01:12:50;20.00;99.90
2387;DHT22;49473;50.772;8.768;2022-08-19T01:15:23;19.90;99.90
2387;DHT22;49473;50.772;8.768;2022-08-19T01:17:50;19.90;99.90
2387;DHT22;49473;50.772;8.768;2022-08-19T01:20:22;19.90;99.90
2387;DHT22;49473;50.772;8.768;2022-08-19T01:22:53;19.90;99.90
2387;DHT22;49473;50.772;8.768;2022-08-19T01:25:22;19.90;99.90
2387;DHT22;49473;50.772;8.768;2022-08-19T01:27:51;19.90;99.90
2387;DHT22;49473;50.772;8.768;2022-08-19T01:30:23;20.00;99.90
2387;DHT22;49473;50.772;8.768;2022-08-19T01:32:50;19.90;99.90
2387;DHT22;49473;50.772;8.768;2022-08-19T01:35:18;19.80;99.90
2387;DHT22;49473;50.772;8.768;2022-08-19T01:37:48;19.70;99.90
2387;DHT22;49473;50.772;8.768;2022-08-19T01:40:20;19.60;99.90
2387;DHT22;49473;50.772;8.768;2022-08-19T01:42:48;19.60;99.90
2387;DHT22;49473;50.772;8.768;2022-08-19T01:45:15;19.50;99.90
2387;DHT22;49473;50.772;8.768;2022-08-19T01:47:42;19.50;99.90
2387;DHT22;49473;50.772;8.768;2022-08-19T01:50:10;19.50;99.90
2387;DHT22;49473;50.772;8.768;2022-08-19T01:52:37;19.50;99.90
2387;DHT22;49473;50.772;8.768;2022-08-19T01:55:07;19.40;99.90
2387;DHT22;49473;50.772;8.768;2022-08-19T01:57:36;19.40;99.90
2387;DHT22;49473;50.772;8.768;2022-08-19T02:00:08;19.40;99.90
2387;DHT22;49473;50.772;8.768;2022-08-19T02:02:35;19.40;99.90
2387;DHT22;49473;50.772;8.768;2022-08-19T02:05:03;19.50;99.90
2387;DHT22;49473;50.772;8.768;2022-08-19T02:07:30;19.50;99.90
2387;DHT22;49473;50.772;8.768;2022-08-19T02:09:58;19.50;99.90
2387;DHT22;49473;50.772;8.768;2022-08-19T02:12:25;19.50;99.90
2387;DHT22;49473;50.772;8.768;2022-08-19T02:14:53;19.40;99.90
2387;DHT22;49473;50.772;8.768;2022-08-19T02:17:20;19.40;99.90
2387;DHT22;49473;50.772;8.768;2022-08-19T02:19:47;19.30;99.90
2387;DHT22;49473;50.772;8.768;2022-08-19T02:22:14;19.30;99.90
2387;DHT22;49473;50.772;8.768;2022-08-19T02:24:41;19.30;99.90
2387;DHT22;49473;50.772;8.768;2022-08-19T02:27:07;19.30;99.90
2387;DHT22;49473;50.772;8.768;2022-08-19T02:29:34;19.20;99.90
2387;DHT22;49473;50.772;8.768;2022-08-19T02:32:03;19.00;99.90
2387;DHT22;49473;50.772;8.768;2022-08-19T02:34:30;18.90;99.90
2387;DHT22;49473;50.772;8.768;2022-08-19T02:36:57;19.00;99.90
2387;DHT22;49473;50.772;8.768;2022-08-19T02:39:23;19.00;99.90
2387;DHT22;49473;50.772;8.768;2022-08-19T02:41:49;19.00;99.90
2387;DHT22;49473;50.772;8.768;2022-08-19T02:44:17;19.10;99.90
2387;DHT22;49473;50.772;8.768;2022-08-19T02:46:45;19.00;99.90
2387;DHT22;49473;50.772;8.768;2022-08-19T02:49:14;19.00;99.90
2387;DHT22;49473;50.772;8.768;2022-08-19T02:51:43;19.00;99.90
2387;DHT22;49473;50.772;8.768;2022-08-19T02:54:11;19.00;99.90
2387;DHT22;49473;50.772;8.768;2022-08-19T02:56:40;19.00;99.90
2387;DHT22;49473;50.772;8.768;2022-08-19T02:59:07;19.10;99.90
2387;DHT22;49473;50.772;8.768;2022-08-19T03:01:38;19.10;99.90
2387;DHT22;49473;50.772;8.768;2022-08-19T03:04:06;19.10;99.90
2387;DHT22;49473;50.772;8.768;2022-08-19T03:06:37;19.00;99.90
2387;DHT22;49473;50.772;8.768;2022-08-19T03:09:04;19.00;99.90
2387;DHT22;49473;50.772;8.768;2022-08-19T03:11:32;19.00;99.90
2387;DHT22;49473;50.772;8.768;2022-08-19T03:14:01;19.00;99.90
2387;DHT22;49473;50.772;8.768;2022-08-19T03:16:30;19.00;99.90
2387;DHT22;49473;50.772;8.768;2022-08-19T03:18:57;18.90;99.90
2387;DHT22;49473;50.772;8.768;2022-08-19T03:21:27;18.70;99.90
2387;DHT22;49473;50.772;8.768;2022-08-19T03:23:56;18.70;99.90
2387;DHT22;49473;50.772;8.768;2022-08-19T03:26:24;18.60;99.90
2387;DHT22;49473;50.772;8.768;2022-08-19T03:28:50;18.50;99.90
2387;DHT22;49473;50.772;8.768;2022-08-19T03:31:19;18.40;99.90
2387;DHT22;49473;50.772;8.768;2022-08-19T03:33:48;18.40;99.90
2387;DHT22;49473;50.772;8.768;2022-08-19T03:36:17;18.40;99.90
2387;DHT22;49473;50.772;8.768;2022-08-19T03:38:48;18.50;99.90
2387;DHT22;49473;50.772;8.768;2022-08-19T03:41:18;18.40;99.90
2387;DHT22;49473;50.772;8.768;2022-08-19T03:43:46;18.20;99.90
2387;DHT22;49473;50.772;8.768;2022-08-19T03:46:16;18.00;99.90
2387;DHT22;49473;50.772;8.768;2022-08-19T03:48:47;18.00;99.90
2387;DHT22;49473;50.772;8.768;2022-08-19T03:51:18;18.00;99.90
2387;DHT22;49473;50.772;8.768;2022-08-19T03:53:46;18.00;99.90
2387;DHT22;49473;50.772;8.768;2022-08-19T03:56:14;17.90;99.90
2387;DHT22;49473;50.772;8.768;2022-08-19T03:58:43;17.80;99.90
2387;DHT22;49473;50.772;8.768;2022-08-19T04:01:14;17.80;99.90
2387;DHT22;49473;50.772;8.768;2022-08-19T04:03:41;17.70;99.90
2387;DHT22;49473;50.772;8.768;2022-08-19T04:06:12;17.60;99.90
2387;DHT22;49473;50.772;8.768;2022-08-19T04:08:40;17.60;99.90
2387;DHT22;49473;50.772;8.768;2022-08-19T04:11:08;17.50;99.90
2387;DHT22;49473;50.772;8.768;2022-08-19T04:13:35;17.50;99.90
2387;DHT22;49473;50.772;8.768;2022-08-19T04:16:04;17.40;99.90
2387;DHT22;49473;50.772;8.768;2022-08-19T04:18:31;17.30;99.90
2387;DHT22;49473;50.772;8.768;2022-08-19T04:20:58;17.30;99.90
2387;DHT22;49473;50.772;8.768;2022-08-19T04:23:25;17.30;99.90
2387;DHT22;49473;50.772;8.768;2022-08-19T04:25:54;17.20;99.90
2387;DHT22;49473;50.772;8.768;2022-08-19T04:28:22;17.20;99.90
2387;DHT22;49473;50.772;8.768;2022-08-19T04:30:51;17.20;99.90
2387;DHT22;49473;50.772;8.768;2022-08-19T04:33:21;17.20;99.90
2387;DHT22;49473;50.772;8.768;2022-08-19T04:35:51;17.20;99.90
2387;DHT22;49473;50.772;8.768;2022-08-19T04:38:19;17.20;99.90
2387;DHT22;49473;50.772;8.768;2022-08-19T04:40:50;17.20;99.90
2387;DHT22;49473;50.772;8.768;2022-08-19T04:43:36;17.20;99.90
2387;DHT22;49473;50.772;8.768;2022-08-19T04:46:05;17.20;99.90
2387;DHT22;49473;50.772;8.768;2022-08-19T04:48:34;17.20;99.90
2387;DHT22;49473;50.772;8.768;2022-08-19T04:51:05;17.10;99.90
2387;DHT22;49473;50.772;8.768;2022-08-19T04:53:35;17.10;99.90
2387;DHT22;49473;50.772;8.768;2022-08-19T04:56:06;17.10;99.90
2387;DHT22;49473;50.772;8.768;2022-08-19T04:58:33;17.20;99.90
2387;DHT22;49473;50.772;8.768;2022-08-19T05:01:00;17.30;99.90
2387;DHT22;49473;50.772;8.768;2022-08-19T05:03:27;17.30;99.90
2387;DHT22;49473;50.772;8.768;2022-08-19T05:06:04;17.30;99.90
2387;DHT22;49473;50.772;8.768;2022-08-19T05:08:33;17.50;99.90
2387;DHT22;49473;50.772;8.768;2022-08-19T05:11:00;17.50;99.90
2387;DHT22;49473;50.772;8.768;2022-08-19T05:13:28;17.70;99.90
2387;DHT22;49473;50.772;8.768;2022-08-19T05:15:56;17.80;99.90
2387;DHT22;49473;50.772;8.768;2022-08-19T05:18:23;17.70;99.90
2387;DHT22;49473;50.772;8.768;2022-08-19T05:21:12;17.60;99.90
2387;DHT22;49473;50.772;8.768;2022-08-19T05:23:56;17.60;99.90
2387;DHT22;49473;50.772;8.768;2022-08-19T05:26:23;17.70;99.90
2387;DHT22;49473;50.772;8.768;2022-08-19T05:28:51;17.80;99.90
2387;DHT22;49473;50.772;8.768;2022-08-19T05:31:18;17.80;99.90
2387;DHT22;49473;50.772;8.768;2022-08-19T05:33:45;17.90;99.90
2387;DHT22;49473;50.772;8.768;2022-08-19T05:36:13;18.00;99.90
2387;DHT22;49473;50.772;8.768;2022-08-19T05:38:40;18.20;99.90
2387;DHT22;49473;50.772;8.768;2022-08-19T05:41:08;18.50;99.90
2387;DHT22;49473;50.772;8.768;2022-08-19T05:43:35;18.70;99.90
2387;DHT22;49473;50.772;8.768;2022-08-19T05:46:02;18.70;99.90
2387;DHT22;49473;50.772;8.768;2022-08-19T05:48:31;18.80;99.90
2387;DHT22;49473;50.772;8.768;2022-08-19T05:51:02;18.90;99.90
2387;DHT22;49473;50.772;8.768;2022-08-19T05:53:31;19.10;99.90
2387;DHT22;49473;50.772;8.768;2022-08-19T05:55:58;19.20;99.90
2387;DHT22;49473;50.772;8.768;2022-08-19T05:58:24;19.40;99.90
2387;DHT22;49473;50.772;8.768;2022-08-19T06:00:51;19.60;99.90
2387;DHT22;49473;50.772;8.768;2022-08-19T06:03:19;19.80;99.90
2387;DHT22;49473;50.772;8.768;2022-08-19T06:05:46;19.90;99.90
2387;DHT22;49473;50.772;8.768;2022-08-19T06:08:12;20.10;99.90
2387;DHT22;49473;50.772;8.768;2022-08-19T06:10:41;20.10;99.90
2387;DHT22;49473;50.772;8.768;2022-08-19T06:13:07;20.10;99.90
2387;DHT22;49473;50.772;8.768;2022-08-19T06:15:34;20.00;99.90
2387;DHT22;49473;50.772;8.768;2022-08-19T06:18:01;20.10;99.90
2387;DHT22;49473;50.772;8.768;2022-08-19T06:20:27;20.40;99.90
2387;DHT22;49473;50.772;8.768;2022-08-19T06:22:54;21.10;99.90
2387;DHT22;49473;50.772;8.768;2022-08-19T06:25:21;21.90;99.90
2387;DHT22;49473;50.772;8.768;2022-08-19T06:27:49;22.20;99.90
2387;DHT22;49473;50.772;8.768;2022-08-19T06:30:16;23.10;99.90
2387;DHT22;49473;50.772;8.768;2022-08-19T06:32:43;24.10;99.90
2387;DHT22;49473;50.772;8.768;2022-08-19T06:35:10;25.20;99.90
2387;DHT22;49473;50.772;8.768;2022-08-19T06:37:37;25.30;99.90
2387;DHT22;49473;50.772;8.768;2022-08-19T06:40:05;25.00;99.90
2387;DHT22;49473;50.772;8.768;2022-08-19T06:42:33;25.40;99.90
2387;DHT22;49473;50.772;8.768;2022-08-19T06:45:02;25.90;99.90
2387;DHT22;49473;50.772;8.768;2022-08-19T06:47:29;26.50;99.90
2387;DHT22;49473;50.772;8.768;2022-08-19T06:49:57;27.00;99.90
2387;DHT22;49473;50.772;8.768;2022-08-19T06:52:28;27.40;99.90
2387;DHT22;49473;50.772;8.768;2022-08-19T06:54:55;27.40;99.90
2387;DHT22;49473;50.772;8.768;2022-08-19T06:57:23;27.80;99.90
2387;DHT22;49473;50.772;8.768;2022-08-19T06:59:50;28.20;99.90
2387;DHT22;49473;50.772;8.768;2022-08-19T07:02:19;27.80;99.90
2387;DHT22;49473;50.772;8.768;2022-08-19T07:04:46;28.00;99.90
2387;DHT22;49473;50.772;8.768;2022-08-19T07:07:14;28.20;99.90
2387;DHT22;49473;50.772;8.768;2022-08-19T07:09:42;28.50;99.90
2387;DHT22;49473;50.772;8.768;2022-08-19T07:12:12;28.40;99.90
2387;DHT22;49473;50.772;8.768;2022-08-19T07:14:40;28.70;99.90
2387;DHT22;49473;50.772;8.768;2022-08-19T07:17:10;28.70;99.90
2387;DHT22;49473;50.772;8.768;2022-08-19T07:19:39;28.80;99.90
2387;DHT22;49473;50.772;8.768;2022-08-19T07:22:08;28.70;99.90
2387;DHT22;49473;50.772;8.768;2022-08-19T07:24:35;28.60;99.90
2387;DHT22;49473;50.772;8.768;2022-08-19T07:27:04;29.00;99.90
2387;DHT22;49473;50.772;8.768;2022-08-19T07:29:33;29.40;99.90
2387;DHT22;49473;50.772;8.768;2022-08-19T07:32:01;29.80;99.90
2387;DHT22;49473;50.772;8.768;2022-08-19T07:34:29;29.80;99.90
2387;DHT22;49473;50.772;8.768;2022-08-19T07:36:57;29.40;99.90
2387;DHT22;49473;50.772;8.768;2022-08-19T07:39:27;29.80;99.90
2387;DHT22;49473;50.772;8.768;2022-08-19T07:41:55;29.80;99.90
2387;DHT22;49473;50.772;8.768;2022-08-19T07:44:22;29.00;99.90
2387;DHT22;49473;50.772;8.768;2022-08-19T07:46:51;28.90;99.90
2387;DHT22;49473;50.772;8.768;2022-08-19T07:49:19;28.00;99.90
2387;DHT22;49473;50.772;8.768;2022-08-19T07:51:49;27.90;99.90
2387;DHT22;49473;50.772;8.768;2022-08-19T07:54:18;27.70;99.90
2387;DHT22;49473;50.772;8.768;2022-08-19T07:56:45;27.40;99.90
2387;DHT22;49473;50.772;8.768;2022-08-19T07:59:12;27.40;99.90
2387;DHT22;49473;50.772;8.768;2022-08-19T08:01:39;27.50;99.90
2387;DHT22;49473;50.772;8.768;2022-08-19T08:04:07;27.80;99.90
2387;DHT22;49473;50.772;8.768;2022-08-19T08:06:52;27.50;99.90
2387;DHT22;49473;50.772;8.768;2022-08-19T08:09:40;27.10;99.90
2387;DHT22;49473;50.772;8.768;2022-08-19T08:12:09;27.20;99.90
2387;DHT22;49473;50.772;8.768;2022-08-19T08:14:39;26.70;99.90
2387;DHT22;49473;50.772;8.768;2022-08-19T08:17:07;26.70;99.90
2387;DHT22;49473;50.772;8.768;2022-08-19T08:19:34;26.60;99.90
2387;DHT22;49473;50.772;8.768;2022-08-19T08:22:02;26.90;99.90
2387;DHT22;49473;50.772;8.768;2022-08-19T08:24:31;26.70;99.90
2387;DHT22;49473;50.772;8.768;2022-08-19T08:27:01;26.20;99.90
2387;DHT22;49473;50.772;8.768;2022-08-19T08:29:30;25.90;99.90
2387;DHT22;49473;50.772;8.768;2022-08-19T08:31:58;25.70;99.90
2387;DHT22;49473;50.772;8.768;2022-08-19T08:34:25;25.60;99.90
2387;DHT22;49473;50.772;8.768;2022-08-19T08:36:52;25.40;99.90
2387;DHT22;49473;50.772;8.768;2022-08-19T08:39:20;25.40;99.90
2387;DHT22;49473;50.772;8.768;2022-08-19T08:41:51;25.80;99.90
2387;DHT22;49473;50.772;8.768;2022-08-19T08:44:23;25.90;99.90
2387;DHT22;49473;50.772;8.768;2022-08-19T08:46:55;25.90;99.90
2387;DHT22;49473;50.772;8.768;2022-08-19T08:49:29;25.90;99.90
2387;DHT22;49473;50.772;8.768;2022-08-19T08:52:03;25.90;99.90
2387;DHT22;49473;50.772;8.768;2022-08-19T08:54:33;25.90;99.90
2387;DHT22;49473;50.772;8.768;2022-08-19T08:57:03;26.00;99.90
2387;DHT22;49473;50.772;8.768;2022-08-19T08:59:35;25.80;99.90
2387;DHT22;49473;50.772;8.768;2022-08-19T09:02:03;25.60;99.90
2387;DHT22;49473;50.772;8.768;2022-08-19T09:04:30;25.50;99.90
2387;DHT22;49473;50.772;8.768;2022-08-19T09:07:09;25.60;99.90
2387;DHT22;49473;50.772;8.768;2022-08-19T09:09:41;25.60;99.90
2387;DHT22;49473;50.772;8.768;2022-08-19T09:12:15;26.10;99.90
2387;DHT22;49473;50.772;8.768;2022-08-19T09:14:47;26.50;99.90
2387;DHT22;49473;50.772;8.768;2022-08-19T09:17:15;26.70;99.90
2387;DHT22;49473;50.772;8.768;2022-08-19T09:19:57;26.90;99.90
2387;DHT22;49473;50.772;8.768;2022-08-19T09:22:24;27.00;99.90
2387;DHT22;49473;50.772;8.768;2022-08-19T09:24:52;26.90;99.90
2387;DHT22;49473;50.772;8.768;2022-08-19T09:27:20;26.70;99.90
2387;DHT22;49473;50.772;8.768;2022-08-19T09:29:50;26.70;99.90
2387;DHT22;49473;50.772;8.768;2022-08-19T09:32:17;27.90;99.90
2387;DHT22;49473;50.772;8.768;2022-08-19T09:34:44;29.30;99.90
2387;DHT22;49473;50.772;8.768;2022-08-19T09:37:11;30.20;99.90
2387;DHT22;49473;50.772;8.768;2022-08-19T09:39:38;30.70;99.90
2387;DHT22;49473;50.772;8.768;2022-08-19T09:42:06;31.30;99.90
2387;DHT22;49473;50.772;8.768;2022-08-19T09:44:37;31.20;99.90
2387;DHT22;49473;50.772;8.768;2022-08-19T09:47:06;30.80;99.90
2387;DHT22;49473;50.772;8.768;2022-08-19T09:52:00;32.70;99.90
2387;DHT22;49473;50.772;8.768;2022-08-19T09:54:28;33.20;99.00
2387;DHT22;49473;50.772;8.768;2022-08-19T09:56:55;34.30;96.70
2387;DHT22;49473;50.772;8.768;2022-08-19T09:59:22;34.80;93.50
2387;DHT22;49473;50.772;8.768;2022-08-19T10:01:49;36.20;91.00
2387;DHT22;49473;50.772;8.768;2022-08-19T10:04:18;37.00;88.60
2387;DHT22;49473;50.772;8.768;2022-08-19T10:06:45;36.80;83.00
2387;DHT22;49473;50.772;8.768;2022-08-19T10:09:14;37.20;79.70
2387;DHT22;49473;50.772;8.768;2022-08-19T10:11:42;38.70;75.70
2387;DHT22;49473;50.772;8.768;2022-08-19T10:14:11;39.00;72.90
2387;DHT22;49473;50.772;8.768;2022-08-19T10:16:38;38.00;70.10
2387;DHT22;49473;50.772;8.768;2022-08-19T10:19:06;37.50;71.00
2387;DHT22;49473;50.772;8.768;2022-08-19T10:21:36;37.30;71.60
2387;DHT22;49473;50.772;8.768;2022-08-19T10:24:05;37.70;68.50
2387;DHT22;49473;50.772;8.768;2022-08-19T10:26:38;38.70;67.90
2387;DHT22;49473;50.772;8.768;2022-08-19T10:29:07;39.10;64.40
2387;DHT22;49473;50.772;8.768;2022-08-19T10:31:35;39.10;62.30
2387;DHT22;49473;50.772;8.768;2022-08-19T10:34:02;38.80;62.90
2387;DHT22;49473;50.772;8.768;2022-08-19T10:36:31;39.00;62.70
2387;DHT22;49473;50.772;8.768;2022-08-19T10:39:06;38.70;64.70
2387;DHT22;49473;50.772;8.768;2022-08-19T10:41:35;38.20;63.40
2387;DHT22;49473;50.772;8.768;2022-08-19T10:44:04;37.30;64.60
2387;DHT22;49473;50.772;8.768;2022-08-19T10:46:33;36.10;66.60
2387;DHT22;49473;50.772;8.768;2022-08-19T10:49:01;35.60;67.70
2387;DHT22;49473;50.772;8.768;2022-08-19T10:51:28;35.70;68.40
2387;DHT22;49473;50.772;8.768;2022-08-19T10:54:15;36.30;66.70
2387;DHT22;49473;50.772;8.768;2022-08-19T10:56:42;37.30;66.80
2387;DHT22;49473;50.772;8.768;2022-08-19T10:59:27;37.50;64.80
2387;DHT22;49473;50.772;8.768;2022-08-19T11:01:58;38.40;63.60
2387;DHT22;49473;50.772;8.768;2022-08-19T11:04:25;38.70;62.50
2387;DHT22;49473;50.772;8.768;2022-08-19T11:06:51;37.90;61.70
2387;DHT22;49473;50.772;8.768;2022-08-19T11:09:23;35.60;65.00
2387;DHT22;49473;50.772;8.768;2022-08-19T11:11:51;34.50;67.50
2387;DHT22;49473;50.772;8.768;2022-08-19T11:14:20;34.60;68.60
2387;DHT22;49473;50.772;8.768;2022-08-19T11:16:48;35.80;67.70
2387;DHT22;49473;50.772;8.768;2022-08-19T11:19:15;36.60;64.90
2387;DHT22;49473;50.772;8.768;2022-08-19T11:21:46;36.90;64.70
2387;DHT22;49473;50.772;8.768;2022-08-19T11:24:15;36.20;65.20
2387;DHT22;49473;50.772;8.768;2022-08-19T11:26:44;35.90;66.00
2387;DHT22;49473;50.772;8.768;2022-08-19T11:29:12;35.70;67.10
2387;DHT22;49473;50.772;8.768;2022-08-19T11:31:41;35.70;67.10
2387;DHT22;49473;50.772;8.768;2022-08-19T11:34:11;36.30;66.80
2387;DHT22;49473;50.772;8.768;2022-08-19T11:36:40;36.80;64.00
2387;DHT22;49473;50.772;8.768;2022-08-19T11:39:09;36.10;65.60
2387;DHT22;49473;50.772;8.768;2022-08-19T11:41:36;34.90;67.30
2387;DHT22;49473;50.772;8.768;2022-08-19T11:44:04;33.80;69.10
2387;DHT22;49473;50.772;8.768;2022-08-19T11:46:32;33.40;69.20
2387;DHT22;49473;50.772;8.768;2022-08-19T11:48:59;33.80;70.30
2387;DHT22;49473;50.772;8.768;2022-08-19T11:51:28;34.10;69.00
2387;DHT22;49473;50.772;8.768;2022-08-19T11:53:57;34.80;67.90
2387;DHT22;49473;50.772;8.768;2022-08-19T11:56:25;36.20;65.40
2387;DHT22;49473;50.772;8.768;2022-08-19T11:58:53;37.30;63.90
2387;DHT22;49473;50.772;8.768;2022-08-19T12:01:25;37.30;63.40
2387;DHT22;49473;50.772;8.768;2022-08-19T12:03:54;36.40;63.70
2387;DHT22;49473;50.772;8.768;2022-08-19T12:06:24;36.10;65.00
2387;DHT22;49473;50.772;8.768;2022-08-19T12:08:54;36.70;62.80
2387;DHT22;49473;50.772;8.768;2022-08-19T12:11:21;37.10;62.20
2387;DHT22;49473;50.772;8.768;2022-08-19T12:13:47;37.10;63.50
2387;DHT22;49473;50.772;8.768;2022-08-19T12:16:17;36.60;63.30
2387;DHT22;49473;50.772;8.768;2022-08-19T12:18:46;37.30;62.30
2387;DHT22;49473;50.772;8.768;2022-08-19T12:21:13;39.00;59.50
2387;DHT22;49473;50.772;8.768;2022-08-19T12:23:41;39.90;58.00
2387;DHT22;49473;50.772;8.768;2022-08-19T12:26:09;38.60;58.10
2387;DHT22;49473;50.772;8.768;2022-08-19T12:28:36;39.50;58.30
2387;DHT22;49473;50.772;8.768;2022-08-19T12:31:03;39.90;57.00
2387;DHT22;49473;50.772;8.768;2022-08-19T12:33:30;39.10;57.00
2387;DHT22;49473;50.772;8.768;2022-08-19T12:36:02;38.30;58.70
2387;DHT22;49473;50.772;8.768;2022-08-19T12:38:30;37.60;57.80
2387;DHT22;49473;50.772;8.768;2022-08-19T12:40:58;36.40;58.50
2387;DHT22;49473;50.772;8.768;2022-08-19T12:43:25;35.50;60.00
2387;DHT22;49473;50.772;8.768;2022-08-19T12:45:51;34.10;62.10
2387;DHT22;49473;50.772;8.768;2022-08-19T12:48:18;32.70;65.20
2387;DHT22;49473;50.772;8.768;2022-08-19T12:50:45;31.40;67.10
2387;DHT22;49473;50.772;8.768;2022-08-19T12:53:14;30.80;69.20
2387;DHT22;49473;50.772;8.768;2022-08-19T12:55:42;31.30;70.20
2387;DHT22;49473;50.772;8.768;2022-08-19T12:58:09;32.80;67.40
2387;DHT22;49473;50.772;8.768;2022-08-19T13:00:36;32.80;65.80
2387;DHT22;49473;50.772;8.768;2022-08-19T13:03:02;32.70;66.80
2387;DHT22;49473;50.772;8.768;2022-08-19T13:05:31;32.40;67.00
2387;DHT22;49473;50.772;8.768;2022-08-19T13:07:59;31.60;67.50
2387;DHT22;49473;50.772;8.768;2022-08-19T13:10:30;31.60;67.80
2387;DHT22;49473;50.772;8.768;2022-08-19T13:13:01;31.40;68.80
2387;DHT22;49473;50.772;8.768;2022-08-19T13:15:28;30.90;69.20
2387;DHT22;49473;50.772;8.768;2022-08-19T13:17:57;30.50;70.10
2387;DHT22;49473;50.772;8.768;2022-08-19T13:20:24;30.40;70.90
2387;DHT22;49473;50.772;8.768;2022-08-19T13:22:51;30.30;71.40
2387;DHT22;49473;50.772;8.768;2022-08-19T13:25:18;29.90;71.60
2387;DHT22;49473;50.772;8.768;2022-08-19T13:27:48;29.60;73.40
2387;DHT22;49473;50.772;8.768;2022-08-19T13:30:17;29.50;71.30
2387;DHT22;49473;50.772;8.768;2022-08-19T13:33:02;29.20;71.90
2387;DHT22;49473;50.772;8.768;2022-08-19T13:35:40;29.00;72.90
2387;DHT22;49473;50.772;8.768;2022-08-19T13:38:07;29.00;72.80
2387;DHT22;49473;50.772;8.768;2022-08-19T13:40:35;28.80;74.00
2387;DHT22;49473;50.772;8.768;2022-08-19T13:43:04;29.00;74.70
2387;DHT22;49473;50.772;8.768;2022-08-19T13:45:33;29.20;74.00
2387;DHT22;49473;50.772;8.768;2022-08-19T13:48:02;29.40;72.60
2387;DHT22;49473;50.772;8.768;2022-08-19T13:50:32;29.40;74.50
2387;DHT22;49473;50.772;8.768;2022-08-19T13:53:00;29.40;72.30
2387;DHT22;49473;50.772;8.768;2022-08-19T13:55:27;29.10;73.60
2387;DHT22;49473;50.772;8.768;2022-08-19T13:57:55;28.80;74.20
2387;DHT22;49473;50.772;8.768;2022-08-19T14:00:25;28.20;76.40
2387;DHT22;49473;50.772;8.768;2022-08-19T14:02:54;28.10;77.60
2387;DHT22;49473;50.772;8.768;2022-08-19T14:05:23;28.10;78.80
2387;DHT22;49473;50.772;8.768;2022-08-19T14:07:50;27.90;77.80
2387;DHT22;49473;50.772;8.768;2022-08-19T14:10:17;27.90;78.80
2387;DHT22;49473;50.772;8.768;2022-08-19T14:12:44;27.90;78.70
2387;DHT22;49473;50.772;8.768;2022-08-19T14:15:12;27.70;78.70
2387;DHT22;49473;50.772;8.768;2022-08-19T14:17:41;27.70;80.90
2387;DHT22;49473;50.772;8.768;2022-08-19T14:20:10;27.70;80.20
2387;DHT22;49473;50.772;8.768;2022-08-19T14:22:39;27.70;78.90
2387;DHT22;49473;50.772;8.768;2022-08-19T14:25:08;27.70;79.70
2387;DHT22;49473;50.772;8.768;2022-08-19T14:27:36;27.80;79.90
2387;DHT22;49473;50.772;8.768;2022-08-19T14:30:04;28.10;79.40
2387;DHT22;49473;50.772;8.768;2022-08-19T14:32:32;28.30;80.00
2387;DHT22;49473;50.772;8.768;2022-08-19T14:35:01;28.40;78.50
2387;DHT22;49473;50.772;8.768;2022-08-19T14:37:27;28.40;78.70
2387;DHT22;49473;50.772;8.768;2022-08-19T14:39:54;28.20;78.50
2387;DHT22;49473;50.772;8.768;2022-08-19T14:42:21;27.90;78.80
2387;DHT22;49473;50.772;8.768;2022-08-19T14:44:48;28.10;79.10
2387;DHT22;49473;50.772;8.768;2022-08-19T14:47:14;28.10;78.80
2387;DHT22;49473;50.772;8.768;2022-08-19T14:49:41;28.10;79.40
2387;DHT22;49473;50.772;8.768;2022-08-19T14:52:10;28.10;79.30
2387;DHT22;49473;50.772;8.768;2022-08-19T14:54:37;28.10;80.70
2387;DHT22;49473;50.772;8.768;2022-08-19T14:57:03;28.30;79.60
2387;DHT22;49473;50.772;8.768;2022-08-19T14:59:30;28.20;79.00
2387;DHT22;49473;50.772;8.768;2022-08-19T15:01:57;28.00;79.80
2387;DHT22;49473;50.772;8.768;2022-08-19T15:04:25;28.00;80.40
2387;DHT22;49473;50.772;8.768;2022-08-19T15:06:51;28.00;79.80
2387;DHT22;49473;50.772;8.768;2022-08-19T15:09:20;27.90;80.60
2387;DHT22;49473;50.772;8.768;2022-08-19T15:11:47;27.90;80.40
2387;DHT22;49473;50.772;8.768;2022-08-19T15:14:15;28.00;80.70
2387;DHT22;49473;50.772;8.768;2022-08-19T15:16:42;28.30;82.00
2387;DHT22;49473;50.772;8.768;2022-08-19T15:19:09;28.30;79.90
2387;DHT22;49473;50.772;8.768;2022-08-19T15:21:37;28.40;80.40
2387;DHT22;49473;50.772;8.768;2022-08-19T15:24:04;28.70;80.00
2387;DHT22;49473;50.772;8.768;2022-08-19T15:26:32;28.90;80.70
2387;DHT22;49473;50.772;8.768;2022-08-19T15:29:00;29.00;80.40
2387;DHT22;49473;50.772;8.768;2022-08-19T15:31:27;29.30;78.80
2387;DHT22;49473;50.772;8.768;2022-08-19T15:33:55;29.10;78.90
2387;DHT22;49473;50.772;8.768;2022-08-19T15:36:23;29.00;78.40
2387;DHT22;49473;50.772;8.768;2022-08-19T15:38:50;28.90;79.50
2387;DHT22;49473;50.772;8.768;2022-08-19T15:41:19;28.70;79.60
2387;DHT22;49473;50.772;8.768;2022-08-19T15:43:52;28.80;80.40
2387;DHT22;49473;50.772;8.768;2022-08-19T15:46:21;28.90;79.10
2387;DHT22;49473;50.772;8.768;2022-08-19T15:48:49;29.00;80.00
2387;DHT22;49473;50.772;8.768;2022-08-19T15:51:17;28.90;80.50
2387;DHT22;49473;50.772;8.768;2022-08-19T15:53:44;28.90;81.50
2387;DHT22;49473;50.772;8.768;2022-08-19T15:56:11;29.10;79.40